Time;durP1;ratioP1;P1;durP2;ratioP2;P2;SDS_P1;SDS_P2;PMS_P1;PMS_P2;Temp;Humidity;BMP_temperature;BMP_pressure;BME280_temperature;BME280_humidity;BME280_pressure;Samples;Min_cycle;Max_cycle;Signal;HPM_P1;HPM_P2
2022/10/15 00:01:09;;;;;;;;;;;;;;;21.31;56.50;100383.00;5013716;28;2849;-69
2022/10/15 00:03:36;;;;;;;;;;;;;;;21.30;56.88;100377.91;5011346;28;2819;-69
2022/10/15 00:06:04;;;;;;;;;;;;;;;21.29;56.64;100377.16;5007611;28;3026;-69
2022/10/15 00:08:30;;;;;;;;;;;;;;;21.28;56.71;100367.06;5010717;28;2807;-68
2022/10/15 00:11:01;;;;;;;;;;;;;;;21.31;56.65;100362.09;5012050;28;2691;-67
2022/10/15 00:13:27;;;;;;;;;;;;;;;21.32;56.73;100361.41;5014205;28;2662;-68
2022/10/15 00:15:53;;;;;;;;;;;;;;;21.32;57.10;100363.56;5011375;28;3232;-68
2022/10/15 00:18:20;;;;;;;;;;;;;;;21.32;56.65;100364.31;5012717;28;2797;-69
2022/10/15 00:20:46;;;;;;;;;;;;;;;21.29;56.70;100362.75;5011932;28;2921;-69
2022/10/15 00:23:12;;;;;;;;;;;;;;;21.28;56.81;100364.19;5011039;28;2743;-68
2022/10/15 00:25:41;;;;;;;;;;;;;;;21.27;56.85;100362.69;5014832;28;2850;-68
2022/10/15 00:28:07;;;;;;;;;;;;;;;21.28;56.77;100352.66;5012277;28;3157;-69
2022/10/15 00:30:33;;;;;;;;;;;;;;;21.29;56.96;100351.25;5014521;28;3112;-68
2022/10/15 00:33:00;;;;;;;;;;;;;;;21.29;56.98;100348.38;5014867;28;2834;-69
2022/10/15 00:35:26;;;;;;;;;;;;;;;21.28;56.81;100352.66;5019716;28;2822;-68
2022/10/15 00:37:52;;;;;;;;;;;;;;;21.25;56.83;100353.97;5017006;28;2732;-68
2022/10/15 00:40:19;;;;;;;;;;;;;;;21.28;56.78;100357.66;5019114;28;2607;-69
2022/10/15 00:42:45;;;;;;;;;;;;;;;21.26;56.72;100343.94;5018802;28;2438;-69
2022/10/15 00:45:12;;;;;;;;;;;;;;;21.25;56.81;100353.97;5019045;28;2806;-69
2022/10/15 00:47:39;;;;;;;;;;;;;;;21.28;56.67;100346.91;5014093;28;3059;-68
2022/10/15 00:50:06;;;;;;;;;;;;;;;21.28;56.78;100346.13;5014353;28;2897;-68
2022/10/15 00:52:35;;;;;;;;;;;;;;;21.26;56.83;100341.06;5012518;28;3352;-68
2022/10/15 00:55:04;;;;;;;;;;;;;;;21.26;56.86;100331.69;5015574;28;2704;-69
2022/10/15 00:57:31;;;;;;;;;;;;;;;21.26;56.95;100335.31;5014592;28;2649;-69
2022/10/15 00:59:59;;;;;;;;;;;;;;;21.24;56.92;100323.00;5012701;28;3075;-68
2022/10/15 01:02:25;;;;;;;;;;;;;;;21.25;56.83;100319.41;5013374;28;3035;-68
2022/10/15 01:04:52;;;;;;;;;;;;;;;21.25;57.06;100325.19;5026420;28;2912;-68
2022/10/15 01:07:18;;;;;;;;;;;;;;;21.27;56.90;100318.75;5005907;28;2819;-68
2022/10/15 01:09:45;;;;;;;;;;;;;;;21.25;56.95;100319.41;5011942;28;2860;-68
2022/10/15 01:12:18;;;;;;;;;;;;;;;21.25;56.94;100319.41;5023124;28;3031;-68
2022/10/15 01:14:48;;;;;;;;;;;;;;;21.24;56.96;100314.34;5022192;28;2884;-68
2022/10/15 01:17:19;;;;;;;;;;;;;;;21.24;56.76;100317.97;5013802;28;2421;-68
2022/10/15 01:19:57;;;;;;;;;;;;;;;21.23;56.80;100310.72;5019169;28;2918;-68
2022/10/15 01:22:28;;;;;;;;;;;;;;;21.23;56.77;100307.84;4999091;28;3345;-68
2022/10/15 01:25:02;;;;;;;;;;;;;;;21.25;56.68;100299.28;5026614;28;2812;-68
2022/10/15 01:27:30;;;;;;;;;;;;;;;21.25;56.94;100302.16;5020787;28;3041;-68
2022/10/15 01:30:02;;;;;;;;;;;;;;;21.24;56.82;100300.69;5006922;28;2898;-68
2022/10/15 01:32:30;;;;;;;;;;;;;;;21.21;56.96;100296.28;5018686;28;2756;-69
2022/10/15 01:35:02;;;;;;;;;;;;;;;21.22;56.82;100302.75;5015084;28;2826;-69
2022/10/15 01:37:45;;;;;;;;;;;;;;;21.23;56.82;100287.69;5000093;28;2848;-68
2022/10/15 01:40:16;;;;;;;;;;;;;;;21.23;57.05;100276.16;5025049;28;3004;-68
2022/10/15 01:42:46;;;;;;;;;;;;;;;21.25;56.77;100289.91;5016135;28;2575;-68
2022/10/15 01:45:15;;;;;;;;;;;;;;;21.22;56.89;100286.22;5012004;28;2893;-68
2022/10/15 01:47:56;;;;;;;;;;;;;;;21.23;56.75;100290.56;5022000;28;2961;-68
2022/10/15 01:50:23;;;;;;;;;;;;;;;21.23;56.86;100286.94;4994254;28;2716;-68
2022/10/15 01:52:50;;;;;;;;;;;;;;;21.22;57.07;100274.69;5003776;28;2882;-68
2022/10/15 01:55:16;;;;;;;;;;;;;;;21.23;57.01;100270.41;5010037;28;3070;-69
2022/10/15 01:57:43;;;;;;;;;;;;;;;21.21;56.80;100279.00;5019511;28;2611;-68
2022/10/15 02:00:11;;;;;;;;;;;;;;;21.21;57.16;100279.00;5029042;28;2731;-68
2022/10/15 02:02:40;;;;;;;;;;;;;;;21.22;57.08;100276.84;5004563;28;2941;-69
2022/10/15 02:05:12;;;;;;;;;;;;;;;21.21;57.01;100276.13;5005996;28;2936;-68
2022/10/15 02:07:43;;;;;;;;;;;;;;;21.22;57.09;100265.34;5015061;28;3229;-69
2022/10/15 02:10:13;;;;;;;;;;;;;;;21.23;56.84;100281.19;5026454;28;2532;-68
2022/10/15 02:12:40;;;;;;;;;;;;;;;21.21;56.89;100279.00;5029333;28;2741;-68
2022/10/15 02:15:13;;;;;;;;;;;;;;;21.22;56.81;100280.47;5032219;28;1699;-68
2022/10/15 02:17:52;;;;;;;;;;;;;;;21.19;56.97;100267.41;5005090;28;72211;-68
2022/10/15 02:20:40;;;;;;;;;;;;;;;21.21;56.89;100273.25;5014095;28;2777;-67
2022/10/15 02:23:14;;;;;;;;;;;;;;;21.21;57.14;100267.47;5047881;28;2979;-68
2022/10/15 02:25:41;;;;;;;;;;;;;;;21.21;56.89;100266.72;5042330;28;2903;-67
2022/10/15 02:28:07;;;;;;;;;;;;;;;21.21;56.79;100270.34;5022738;28;2805;-68
2022/10/15 02:30:34;;;;;;;;;;;;;;;21.21;57.06;100263.84;5012699;28;2713;-67
2022/10/15 02:33:01;;;;;;;;;;;;;;;21.21;56.73;100273.25;5035636;28;3272;-67
2022/10/15 02:35:27;;;;;;;;;;;;;;;21.20;56.95;100257.34;5021686;28;2770;-68
2022/10/15 02:37:53;;;;;;;;;;;;;;;21.19;56.84;100253.00;5028227;28;2984;-67
2022/10/15 02:40:20;;;;;;;;;;;;;;;21.20;57.04;100256.63;5029858;28;2589;-68
2022/10/15 02:42:48;;;;;;;;;;;;;;;21.19;57.04;100246.50;5005397;28;2883;-67
2022/10/15 02:45:14;;;;;;;;;;;;;;;21.21;57.04;100252.31;5026499;28;2792;-68
2022/10/15 02:47:41;;;;;;;;;;;;;;;21.21;56.86;100238.69;5015164;28;2903;-67
2022/10/15 02:50:07;;;;;;;;;;;;;;;21.22;56.78;100240.16;5000307;28;3111;-67
2022/10/15 02:52:33;;;;;;;;;;;;;;;21.23;56.96;100238.72;5018992;28;2721;-67
2022/10/15 02:55:00;;;;;;;;;;;;;;;21.25;56.79;100244.56;5014559;28;2680;-67
2022/10/15 02:57:26;;;;;;;;;;;;;;;21.27;56.93;100241.75;5021176;28;2830;-67
2022/10/15 02:59:53;;;;;;;;;;;;;;;21.26;56.87;100251.81;5008760;28;2887;-67
2022/10/15 03:02:19;;;;;;;;;;;;;;;21.28;56.86;100249.00;5014742;28;3093;-67
2022/10/15 03:04:46;;;;;;;;;;;;;;;21.29;56.94;100241.81;5017291;28;2826;-67
2022/10/15 03:07:13;;;;;;;;;;;;;;;21.30;56.94;100237.53;5015531;28;3086;-67
2022/10/15 03:09:39;;;;;;;;;;;;;;;21.30;57.02;100246.19;5010209;28;2809;-68
2022/10/15 03:12:06;;;;;;;;;;;;;;;21.29;56.86;100244.69;5009114;28;2949;-67
2022/10/15 03:14:32;;;;;;;;;;;;;;;21.30;56.98;100239.66;5014527;28;3070;-67
2022/10/15 03:16:59;;;;;;;;;;;;;;;21.30;56.81;100242.53;5009921;28;2877;-67
2022/10/15 03:19:26;;;;;;;;;;;;;;;21.28;56.97;100231.72;5009518;28;2965;-67
2022/10/15 03:21:53;;;;;;;;;;;;;;;21.29;57.06;100233.19;5010168;28;2821;-67
2022/10/15 03:24:19;;;;;;;;;;;;;;;21.28;57.23;100225.97;5010709;28;2818;-67
2022/10/15 03:26:46;;;;;;;;;;;;;;;21.30;57.05;100231.03;5045045;28;2614;-67
2022/10/15 03:29:12;;;;;;;;;;;;;;;21.30;56.88;100228.91;5012154;28;2837;-68
2022/10/15 03:31:44;;;;;;;;;;;;;;;21.29;57.00;100221.66;5008678;28;3157;-67
2022/10/15 03:34:11;;;;;;;;;;;;;;;21.30;56.95;100222.38;5010321;28;2761;-67
2022/10/15 03:36:37;;;;;;;;;;;;;;;21.30;57.02;100225.25;5043603;28;2855;-67
2022/10/15 03:39:07;;;;;;;;;;;;;;;21.28;57.02;100231.72;5012130;28;1943;-68
2022/10/15 03:41:34;;;;;;;;;;;;;;;21.29;57.15;100220.94;5011886;28;3004;-67
2022/10/15 03:44:01;;;;;;;;;;;;;;;21.27;57.22;100212.94;5021990;28;1731;-68
2022/10/15 03:46:29;;;;;;;;;;;;;;;21.27;57.32;100218.72;5029076;28;3014;-67
2022/10/15 03:48:57;;;;;;;;;;;;;;;21.25;57.32;100224.41;5008831;28;2821;-67
2022/10/15 03:51:23;;;;;;;;;;;;;;;21.28;57.13;100219.44;5010045;28;2945;-67
2022/10/15 03:54:00;;;;;;;;;;;;;;;21.27;57.16;100218.72;5021702;28;2675;-67
2022/10/15 03:56:26;;;;;;;;;;;;;;;21.27;57.32;100217.97;5013457;28;1866;-67
2022/10/15 03:59:04;;;;;;;;;;;;;;;21.27;57.33;100212.22;5015003;28;3184;-67
2022/10/15 04:01:30;;;;;;;;;;;;;;;21.27;57.37;100212.22;5017691;28;2848;-67
2022/10/15 04:03:59;;;;;;;;;;;;;;;21.28;56.94;100213.69;5012620;28;2940;-67
2022/10/15 04:06:26;;;;;;;;;;;;;;;21.25;57.44;100221.53;5003735;28;2851;-67
2022/10/15 04:08:52;;;;;;;;;;;;;;;21.25;57.25;100224.41;5026498;28;2805;-68
2022/10/15 04:11:22;;;;;;;;;;;;;;;21.26;57.15;100225.88;5024822;28;3142;-67
2022/10/15 04:13:58;;;;;;;;;;;;;;;21.26;57.29;100230.91;5028170;28;2966;-68
2022/10/15 04:16:25;;;;;;;;;;;;;;;21.25;57.20;100227.28;5023643;28;2865;-68
2022/10/15 04:18:51;;;;;;;;;;;;;;;21.25;57.18;100226.56;5012654;28;2842;-67
2022/10/15 04:21:17;;;;;;;;;;;;;;;21.23;57.27;100230.09;5013518;28;2775;-67
2022/10/15 04:23:48;;;;;;;;;;;;;;;21.24;57.39;100227.97;5021689;28;1881;-67
2022/10/15 04:26:21;;;;;;;;;;;;;;;21.23;57.42;100230.09;5013531;28;2921;-67
2022/10/15 04:28:47;;;;;;;;;;;;;;;21.24;57.37;100225.09;5029010;28;1987;-68
2022/10/15 04:31:14;;;;;;;;;;;;;;;21.25;57.12;100227.28;5010589;28;2811;-67
2022/10/15 04:33:41;;;;;;;;;;;;;;;21.22;57.23;100228.63;5013840;28;1709;-67
2022/10/15 04:36:08;;;;;;;;;;;;;;;21.22;57.27;100234.38;5009744;28;2913;-68
2022/10/15 04:38:47;;;;;;;;;;;;;;;21.22;57.10;100231.50;5012183;28;2854;-67
2022/10/15 04:41:20;;;;;;;;;;;;;;;21.22;57.19;100234.38;5008884;28;2893;-68
2022/10/15 04:44:00;;;;;;;;;;;;;;;21.22;57.05;100234.38;5010998;28;2944;-68
2022/10/15 04:46:28;;;;;;;;;;;;;;;21.20;57.34;100236.47;5014145;28;2788;-67
2022/10/15 04:48:57;;;;;;;;;;;;;;;21.22;57.36;100234.38;5008169;28;2891;-67
2022/10/15 04:51:24;;;;;;;;;;;;;;;21.20;57.22;100248.72;5019942;28;3094;-67
2022/10/15 04:54:11;;;;;;;;;;;;;;;21.20;57.36;100239.34;5010138;28;2824;-67
2022/10/15 04:56:52;;;;;;;;;;;;;;;21.20;57.27;100240.06;5011269;28;2898;-67
2022/10/15 04:59:19;;;;;;;;;;;;;;;21.21;57.32;100226.41;5005547;28;2862;-67
2022/10/15 05:02:10;;;;;;;;;;;;;;;21.20;57.08;100231.44;5011544;28;2467;-67
2022/10/15 05:04:37;;;;;;;;;;;;;;;21.20;57.18;100239.34;5027076;28;2833;-67
2022/10/15 05:07:03;;;;;;;;;;;;;;;21.18;57.20;100233.53;5028757;28;2829;-67
2022/10/15 05:09:30;;;;;;;;;;;;;;;21.20;57.08;100242.22;5009186;28;2742;-67
2022/10/15 05:11:58;;;;;;;;;;;;;;;21.21;57.04;100240.81;5014488;28;2829;-67
2022/10/15 05:14:27;;;;;;;;;;;;;;;21.20;57.21;100237.19;5028044;28;2863;-67
2022/10/15 05:17:11;;;;;;;;;;;;;;;21.17;57.25;100238.53;5007981;28;3098;-67
2022/10/15 05:19:39;;;;;;;;;;;;;;;21.20;57.19;100240.06;5021441;28;2946;-67
2022/10/15 05:22:13;;;;;;;;;;;;;;;21.18;57.38;100245.75;5014380;28;3083;-67
2022/10/15 05:24:46;;;;;;;;;;;;;;;21.18;57.21;100250.78;5033783;28;2860;-68
2022/10/15 05:27:32;;;;;;;;;;;;;;;21.16;57.15;100247.84;5014230;28;2856;-68
2022/10/15 05:29:59;;;;;;;;;;;;;;;21.17;57.17;100252.94;5031894;28;2787;-67
2022/10/15 05:32:34;;;;;;;;;;;;;;;21.18;57.13;100250.78;5027762;28;2902;-68
2022/10/15 05:35:01;;;;;;;;;;;;;;;21.18;57.14;100254.41;5028876;28;2779;-68
2022/10/15 05:37:44;;;;;;;;;;;;;;;21.16;57.35;100260.09;5018416;28;3001;-67
2022/10/15 05:40:13;;;;;;;;;;;;;;;21.16;57.28;100265.84;5015896;28;1862;-67
2022/10/15 05:42:56;;;;;;;;;;;;;;;21.16;57.22;100260.09;5018745;28;2845;-67
2022/10/15 05:45:23;;;;;;;;;;;;;;;21.16;57.46;100262.25;5016565;28;2429;-68
2022/10/15 05:47:53;;;;;;;;;;;;;;;21.15;57.26;100267.25;5028328;28;2829;-67
2022/10/15 05:50:19;;;;;;;;;;;;;;;21.15;57.30;100270.16;5011382;28;3059;-67
2022/10/15 05:52:46;;;;;;;;;;;;;;;21.14;57.16;100268.66;5031231;28;2902;-67
2022/10/15 05:55:25;;;;;;;;;;;;;;;21.16;57.18;100270.88;5014112;28;2814;-67
2022/10/15 05:57:51;;;;;;;;;;;;;;;21.17;57.33;100272.38;5016427;28;2904;-70
2022/10/15 06:00:18;;;;;;;;;;;;;;;21.16;57.18;100270.88;5012170;28;2897;-68
2022/10/15 06:02:50;;;;;;;;;;;;;;;21.11;57.53;100276.50;5014383;28;2978;-67
2022/10/15 06:05:22;;;;;;;;;;;;;;;21.03;57.39;100276.22;5015979;28;2729;-69
2022/10/15 06:07:49;;;;;;;;;;;;;;;21.09;57.34;100279.28;5015647;28;2749;-67
2022/10/15 06:10:15;;;;;;;;;;;;;;;21.11;57.91;100278.63;5014170;28;3231;-68
2022/10/15 06:12:41;;;;;;;;;;;;;;;21.19;57.48;100281.81;5015754;28;2795;-68
2022/10/15 06:15:08;;;;;;;;;;;;;;;21.18;57.72;100286.06;5009893;28;3234;-67
2022/10/15 06:17:34;;;;;;;;;;;;;;;21.16;57.63;100286.00;5016334;28;2801;-68
2022/10/15 06:20:00;;;;;;;;;;;;;;;21.15;57.41;100298.94;5016065;28;2844;-68
2022/10/15 06:22:29;;;;;;;;;;;;;;;21.16;57.63;100288.16;5016713;28;2637;-67
2022/10/15 06:24:55;;;;;;;;;;;;;;;21.14;57.57;100280.16;5017971;28;3057;-67
2022/10/15 06:27:23;;;;;;;;;;;;;;;21.15;57.71;100293.19;5017640;28;2802;-67
2022/10/15 06:29:50;;;;;;;;;;;;;;;21.13;57.64;100285.19;5011699;28;2822;-67
2022/10/15 06:32:16;;;;;;;;;;;;;;;21.13;57.58;100290.22;5014934;28;2743;-67
2022/10/15 06:34:43;;;;;;;;;;;;;;;21.13;57.70;100293.09;5010328;28;2960;-67
2022/10/15 06:37:09;;;;;;;;;;;;;;;21.13;57.42;100287.34;5013706;28;2755;-68
2022/10/15 06:39:36;;;;;;;;;;;;;;;21.12;57.33;100301.00;5016821;28;2629;-68
2022/10/15 06:42:02;;;;;;;;;;;;;;;21.12;57.46;100300.28;5016755;28;2814;-67
2022/10/15 06:44:36;;;;;;;;;;;;;;;21.11;57.58;100305.28;5015326;28;3024;-67
2022/10/15 06:47:03;;;;;;;;;;;;;;;21.11;57.60;100310.31;5014227;28;2975;-66
2022/10/15 06:49:29;;;;;;;;;;;;;;;21.11;57.57;100322.56;5015432;28;2943;-67
2022/10/15 06:51:55;;;;;;;;;;;;;;;21.12;57.37;100317.56;5012873;28;1606;-67
2022/10/15 06:54:28;;;;;;;;;;;;;;;21.10;57.39;100314.59;5015658;28;2731;-67
2022/10/15 06:56:55;;;;;;;;;;;;;;;21.10;57.52;100326.84;5013332;28;2947;-67
2022/10/15 06:59:21;;;;;;;;;;;;;;;21.10;57.38;100337.63;5012764;28;2826;-67
2022/10/15 07:01:47;;;;;;;;;;;;;;;21.11;57.39;100339.81;5017030;28;1601;-67
2022/10/15 07:04:14;;;;;;;;;;;;;;;21.10;57.44;100337.63;5015042;28;2903;-68
2022/10/15 07:06:40;;;;;;;;;;;;;;;21.10;57.51;100337.63;5014617;28;2755;-67
2022/10/15 07:09:06;;;;;;;;;;;;;;;21.10;57.30;100349.16;5013297;28;2988;-67
2022/10/15 07:11:33;;;;;;;;;;;;;;;21.13;57.44;100342.03;5011652;28;3373;-70
2022/10/15 07:13:59;;;;;;;;;;;;;;;21.13;57.42;100342.03;5010298;28;2966;-67
2022/10/15 07:16:26;;;;;;;;;;;;;;;21.18;57.24;100349.41;5012324;28;2812;-66
2022/10/15 07:18:52;;;;;;;;;;;;;;;21.19;57.49;100350.16;5014205;28;2927;-66
2022/10/15 07:21:18;;;;;;;;;;;;;;;21.20;57.65;100340.84;5015485;28;2842;-66
2022/10/15 07:23:45;;;;;;;;;;;;;;;21.19;57.76;100335.75;5013308;28;3000;-67
2022/10/15 07:26:11;;;;;;;;;;;;;;;20.40;59.62;100335.06;5013374;28;2884;-69
2022/10/15 07:28:37;;;;;;;;;;;;;;;19.60;62.21;100334.06;5012960;28;2894;-71
2022/10/15 07:31:04;;;;;;;;;;;;;;;19.34;63.14;100330.84;5010960;28;2882;-71
2022/10/15 07:33:33;;;;;;;;;;;;;;;19.29;63.63;100332.03;5016360;28;2910;-70
2022/10/15 07:36:06;;;;;;;;;;;;;;;19.14;64.17;100342.94;5016623;28;1795;-69
2022/10/15 07:38:33;;;;;;;;;;;;;;;19.05;64.60;100335.34;5016023;28;2651;-68
2022/10/15 07:40:59;;;;;;;;;;;;;;;19.70;63.41;100336.63;5007772;28;2899;-65
2022/10/15 07:43:26;;;;;;;;;;;;;;;20.49;61.19;100333.97;5013670;28;2945;-64
2022/10/15 07:45:53;;;;;;;;;;;;;;;20.70;60.07;100340.50;5021526;28;2672;-69
2022/10/15 07:48:19;;;;;;;;;;;;;;;20.68;59.71;100340.44;5010496;28;3312;-69
2022/10/15 07:50:45;;;;;;;;;;;;;;;20.78;59.57;100343.69;5010516;28;3095;-70
2022/10/15 07:53:12;;;;;;;;;;;;;;;20.86;59.25;100343.97;5016147;28;2774;-68
2022/10/15 07:55:38;;;;;;;;;;;;;;;20.93;58.81;100342.78;5018619;28;2537;-67
2022/10/15 07:58:07;;;;;;;;;;;;;;;20.97;59.04;100345.09;5014813;28;3128;-69
2022/10/15 08:00:33;;;;;;;;;;;;;;;21.03;58.83;100336.69;5016408;28;3447;-68
2022/10/15 08:02:59;;;;;;;;;;;;;;;21.07;58.63;100344.69;5001074;28;3229;-70
2022/10/15 08:05:26;;;;;;;;;;;;;;;21.08;58.51;100340.44;5008592;28;3040;-71
2022/10/15 08:07:52;;;;;;;;;;;;;;;21.09;58.87;100339.03;5015913;28;1976;-68
2022/10/15 08:10:18;;;;;;;;;;;;;;;21.09;58.33;100341.91;5010246;28;2837;-68
2022/10/15 08:12:45;;;;;;;;;;;;;;;21.11;58.24;100344.84;5014644;28;2434;-69
2022/10/15 08:15:11;;;;;;;;;;;;;;;21.12;58.72;100347.06;5013278;28;2902;-69
2022/10/15 08:17:37;;;;;;;;;;;;;;;21.13;58.50;100350.69;5010672;28;3195;-69
2022/10/15 08:20:04;;;;;;;;;;;;;;;21.13;58.76;100347.81;5010917;28;2814;-63
2022/10/15 08:22:31;;;;;;;;;;;;;;;21.12;58.99;100349.22;5015023;28;3209;-66
2022/10/15 08:24:58;;;;;;;;;;;;;;;21.15;58.73;100356.50;5011152;28;2999;-62
2022/10/15 08:27:24;;;;;;;;;;;;;;;21.13;58.92;100357.16;5014240;28;3217;-66
2022/10/15 08:29:55;;;;;;;;;;;;;;;21.16;58.52;100366.63;5027144;28;3094;-62
2022/10/15 08:32:21;;;;;;;;;;;;;;;21.22;58.67;100363.97;5011014;28;3398;-64
2022/10/15 08:34:48;;;;;;;;;;;;;;;21.23;58.36;100361.81;5013925;28;2649;-65
2022/10/15 08:37:14;;;;;;;;;;;;;;;21.23;58.31;100362.53;5015871;28;2995;-64
2022/10/15 08:39:41;;;;;;;;;;;;;;;21.25;58.40;100364.75;5016226;28;3126;-66
2022/10/15 08:42:14;;;;;;;;;;;;;;;21.27;58.48;100365.56;5015090;28;2809;-65
2022/10/15 08:44:43;;;;;;;;;;;;;;;21.27;58.59;100362.69;5004652;28;2855;-65
2022/10/15 08:47:22;;;;;;;;;;;;;;;21.29;58.96;100359.88;5031821;28;3000;-64
2022/10/15 08:49:55;;;;;;;;;;;;;;;21.29;58.87;100365.63;5019946;28;3596;-63
2022/10/15 08:52:23;;;;;;;;;;;;;;;21.31;59.16;100368.59;5018617;28;2881;-64
2022/10/15 08:54:50;;;;;;;;;;;;;;;21.31;58.89;100362.09;5015303;28;2939;-64
2022/10/15 08:57:20;;;;;;;;;;;;;;;21.33;58.93;100365.06;5019955;28;1819;-62
2022/10/15 08:59:48;;;;;;;;;;;;;;;21.33;59.09;100371.53;5015915;28;2800;-64
2022/10/15 09:02:41;;;;;;;;;;;;;;;21.37;59.10;100375.97;5031165;28;3061;-64
2022/10/15 09:05:27;;;;;;;;;;;;;;;21.37;59.40;100378.84;5015317;28;2734;-65
2022/10/15 09:08:00;;;;;;;;;;;;;;;21.38;59.31;100383.22;5019368;28;1973;-65
2022/10/15 09:10:31;;;;;;;;;;;;;;;21.40;59.48;100374.66;5032160;28;3432;-65
2022/10/15 09:12:58;;;;;;;;;;;;;;;21.40;59.19;100377.53;5035189;28;2941;-65
2022/10/15 09:15:25;;;;;;;;;;;;;;;21.41;59.46;100376.13;5016465;28;2901;-64
2022/10/15 09:17:53;;;;;;;;;;;;;;;21.42;59.38;100377.63;5026371;28;3243;-64
2022/10/15 09:20:31;;;;;;;;;;;;;;;21.42;59.62;100377.63;5017098;28;3010;-64
2022/10/15 09:22:58;;;;;;;;;;;;;;;21.44;59.17;100369.03;5016391;28;2721;-63
2022/10/15 09:25:24;;;;;;;;;;;;;;;21.43;59.55;100376.22;5018461;28;1713;-58
2022/10/15 09:27:57;;;;;;;;;;;;;;;21.44;59.43;100369.03;5029828;28;2992;-66
2022/10/15 09:30:26;;;;;;;;;;;;;;;21.47;59.30;100379.22;5015292;28;2952;-64
2022/10/15 09:33:02;;;;;;;;;;;;;;;21.47;59.31;100385.00;5013719;28;2928;-63
2022/10/15 09:35:29;;;;;;;;;;;;;;;21.47;59.17;100385.72;5033263;28;2585;-64
2022/10/15 09:37:59;;;;;;;;;;;;;;;21.48;59.25;100389.34;5018732;28;2332;-63
2022/10/15 09:40:38;;;;;;;;;;;;;;;21.48;59.22;100392.22;5015789;28;3097;-66
2022/10/15 09:43:04;;;;;;;;;;;;;;;21.49;59.06;100393.72;5048127;28;2928;-65
2022/10/15 09:45:31;;;;;;;;;;;;;;;21.49;59.03;100393.72;5010213;28;3081;-64
2022/10/15 09:47:59;;;;;;;;;;;;;;;21.50;58.94;100398.78;5016675;28;3029;-63
2022/10/15 09:50:27;;;;;;;;;;;;;;;21.48;59.23;100392.22;5015465;28;2832;-64
2022/10/15 09:53:12;;;;;;;;;;;;;;;21.50;59.06;100395.16;5014960;28;2903;-64
2022/10/15 09:55:41;;;;;;;;;;;;;;;21.50;58.86;100392.28;5012834;28;3467;-65
2022/10/15 09:58:11;;;;;;;;;;;;;;;21.52;58.86;100389.47;5014718;28;3192;-65
2022/10/15 10:00:50;;;;;;;;;;;;;;;21.51;58.74;100397.41;5013597;28;3402;-64
2022/10/15 10:03:16;;;;;;;;;;;;;;;21.51;58.78;100397.41;5015172;28;2883;-64
2022/10/15 10:05:44;;;;;;;;;;;;;;;21.52;58.54;100403.88;5012703;28;3065;-63
2022/10/15 10:08:21;;;;;;;;;;;;;;;21.53;58.63;100399.59;5011797;28;3043;-63
2022/10/15 10:10:54;;;;;;;;;;;;;;;21.53;58.69;100405.34;5012252;28;3003;-63
2022/10/15 10:13:22;;;;;;;;;;;;;;;21.53;58.82;100408.22;5007242;28;3684;-64
2022/10/15 10:15:48;;;;;;;;;;;;;;;21.55;58.63;100419.81;5010212;28;2837;-64
2022/10/15 10:18:18;;;;;;;;;;;;;;;21.55;58.66;100405.44;5007924;28;3160;-64
2022/10/15 10:20:51;;;;;;;;;;;;;;;21.54;58.66;100406.84;5012075;28;2877;-63
2022/10/15 10:23:20;;;;;;;;;;;;;;;21.54;58.58;100410.47;5007861;28;3031;-63
2022/10/15 10:25:47;;;;;;;;;;;;;;;21.54;58.64;100401.06;5010178;28;2920;-63
2022/10/15 10:28:19;;;;;;;;;;;;;;;21.53;58.90;100406.09;5041372;28;3741;-64
2022/10/15 10:30:55;;;;;;;;;;;;;;;21.54;58.55;100412.59;5011953;28;2780;-63
2022/10/15 10:33:24;;;;;;;;;;;;;;;21.54;58.91;100401.81;5015415;28;2036;-63
2022/10/15 10:35:51;;;;;;;;;;;;;;;21.54;58.97;100412.59;5028395;28;3028;-63
2022/10/15 10:38:21;;;;;;;;;;;;;;;21.55;58.91;100408.31;5013854;28;2961;-64
2022/10/15 10:40:59;;;;;;;;;;;;;;;21.53;58.73;100405.34;5026577;28;2846;-66
2022/10/15 10:43:26;;;;;;;;;;;;;;;21.55;58.80;100408.31;5014451;28;1723;-64
2022/10/15 10:45:53;;;;;;;;;;;;;;;21.53;58.61;100417.63;5016262;28;3431;-63
2022/10/15 10:48:20;;;;;;;;;;;;;;;21.52;59.08;100418.28;5018366;28;1922;-65
2022/10/15 10:50:47;;;;;;;;;;;;;;;21.53;58.86;100417.63;5013537;28;3187;-56
2022/10/15 10:53:18;;;;;;;;;;;;;;;21.34;59.37;100415.47;5010282;28;3515;-49
2022/10/15 10:55:44;;;;;;;;;;;;;;;21.27;59.36;100420.28;5020122;28;3069;-56
2022/10/15 10:58:14;;;;;;;;;;;;;;;21.18;59.86;100412.75;5008655;28;3065;-56
2022/10/15 11:00:44;;;;;;;;;;;;;;;21.17;59.83;100416.31;5011632;28;3417;-60
2022/10/15 11:03:25;;;;;;;;;;;;;;;21.17;59.95;100411.28;5012165;28;3179;-60
2022/10/15 11:06:10;;;;;;;;;;;;;;;21.15;59.85;100414.09;5008733;28;3131;-60
2022/10/15 11:08:44;;;;;;;;;;;;;;;21.14;59.60;100412.59;5012103;28;2994;-60
2022/10/15 11:11:10;;;;;;;;;;;;;;;21.14;59.45;100406.84;5017047;28;3251;-62
2022/10/15 11:13:43;;;;;;;;;;;;;;;21.14;59.50;100406.84;5011702;28;3131;-61
2022/10/15 11:16:12;;;;;;;;;;;;;;;21.06;59.44;100407.31;5019578;28;3130;-62
2022/10/15 11:18:47;;;;;;;;;;;;;;;21.04;59.59;100410.09;5004032;28;3463;-62
2022/10/15 11:21:16;;;;;;;;;;;;;;;21.03;59.40;100405.03;5009584;28;3081;-62
2022/10/15 11:23:50;;;;;;;;;;;;;;;21.06;59.34;100406.56;5009385;28;3101;-62
2022/10/15 11:26:16;;;;;;;;;;;;;;;21.06;59.54;100392.91;5023928;28;3497;-61
2022/10/15 11:29:00;;;;;;;;;;;;;;;21.14;59.18;100395.34;5011825;28;3318;-61
2022/10/15 11:31:45;;;;;;;;;;;;;;;21.15;59.33;100384.56;5026263;28;2871;-61
2022/10/15 11:34:50;;;;;;;;;;;;;;;20.99;59.75;100382.59;5014265;28;1644;-62
2022/10/15 11:37:26;;;;;;;;;;;;;;;21.11;59.39;100385.16;5016690;28;2965;-62
2022/10/15 11:40:04;;;;;;;;;;;;;;;21.17;59.42;100379.63;5013325;28;1835;-62
2022/10/15 11:42:39;;;;;;;;;;;;;;;21.16;59.50;100381.00;5015033;28;2919;-62
2022/10/15 11:45:25;;;;;;;;;;;;;;;21.18;59.19;100378.22;5012948;28;3568;-62
2022/10/15 11:47:59;;;;;;;;;;;;;;;21.23;58.95;100384.84;5012418;28;3021;-62
2022/10/15 11:50:43;;;;;;;;;;;;;;;21.21;59.23;100376.91;5016636;28;3173;-62
2022/10/15 11:53:22;;;;;;;;;;;;;;;21.28;59.13;100381.47;5016734;28;3004;-63
2022/10/15 11:56:04;;;;;;;;;;;;;;;21.32;59.23;100375.09;5012719;28;3574;-63
2022/10/15 11:58:36;;;;;;;;;;;;;;;21.32;59.32;100375.81;5011327;28;3132;-63
2022/10/15 12:01:08;;;;;;;;;;;;;;;21.33;59.03;100383.06;5011010;28;1568;-62
2022/10/15 12:03:49;;;;;;;;;;;;;;;21.33;59.11;100374.44;5024283;28;2976;-63
2022/10/15 12:06:16;;;;;;;;;;;;;;;21.29;59.19;100377.16;5012388;28;1669;-64
2022/10/15 12:08:42;;;;;;;;;;;;;;;21.32;58.85;100381.56;5009345;28;3151;-63
2022/10/15 12:11:11;;;;;;;;;;;;;;;21.37;58.90;100384.59;5009482;28;3146;-64
2022/10/15 12:13:40;;;;;;;;;;;;;;;21.37;58.93;100382.47;5012869;28;3456;-66
2022/10/15 12:16:25;;;;;;;;;;;;;;;21.74;61.45;100384.47;5000945;28;3331;-70
2022/10/15 12:18:54;;;;;;;;;;;;;;;21.67;59.55;100388.56;5011848;28;3317;-69
2022/10/15 12:21:26;;;;;;;;;;;;;;;21.55;59.14;100385.25;5010430;28;3229;-67
2022/10/15 12:23:53;;;;;;;;;;;;;;;21.61;58.70;100391.22;5015968;28;3784;-71
2022/10/15 12:26:31;;;;;;;;;;;;;;;21.57;58.63;100385.31;5011031;28;5665;-64
2022/10/15 12:29:01;;;;;;;;;;;;;;;21.65;58.79;100385.63;5020048;28;3237;-70
2022/10/15 12:31:48;;;;;;;;;;;;;;;21.77;58.50;100387.44;5020475;28;3344;-67
2022/10/15 12:34:41;;;;;;;;;;;;;;;21.81;58.45;100393.34;5014820;28;3103;-63
2022/10/15 12:37:17;;;;;;;;;;;;;;;21.77;58.17;100387.44;5012458;28;3279;-70
2022/10/15 12:39:47;;;;;;;;;;;;;;;21.68;58.67;100392.91;5019028;28;3491;-62
2022/10/15 12:42:23;;;;;;;;;;;;;;;21.87;58.34;100388.47;5018873;28;3190;-70
2022/10/15 12:44:49;;;;;;;;;;;;;;;21.84;58.38;100391.97;5014392;28;3234;-65
2022/10/15 12:47:23;;;;;;;;;;;;;;;21.82;58.30;100384.00;5012118;28;3164;-63
2022/10/15 12:50:03;;;;;;;;;;;;;;;21.90;58.19;100383.53;5017785;28;3158;-64
2022/10/15 12:52:48;;;;;;;;;;;;;;;21.92;58.36;100384.34;5011005;28;3182;-64
2022/10/15 12:55:18;;;;;;;;;;;;;;;21.83;58.23;100382.59;5003621;28;3270;-64
2022/10/15 12:57:45;;;;;;;;;;;;;;;21.89;58.53;100382.06;5006998;28;3217;-70
2022/10/15 13:00:26;;;;;;;;;;;;;;;21.94;58.16;100372.88;5013830;28;3432;-70
2022/10/15 13:02:52;;;;;;;;;;;;;;;22.01;57.93;100359.38;5010891;28;3245;-67